Time;durP1;ratioP1;P1;durP2;ratioP2;P2;SDS_P1;SDS_P2;PMS_P1;PMS_P2;Temp;Humidity;BMP_temperature;BMP_pressure;BME280_temperature;BME280_humidity;BME280_pressure;Samples;Min_cycle;Max_cycle;Signal;HPM_P1;HPM_P2
2024/02/02 00:00:45;;;;;;;105.93;34.60;;;5.90;94.10;;;;;;818927;173;26954;-79
2024/02/02 00:03:12;;;;;;;49.43;16.83;;;5.90;94.20;;;;;;818837;173;26405;-80
2024/02/02 00:05:38;;;;;;;49.27;16.37;;;5.90;94.10;;;;;;803245;172;26401;-78
2024/02/02 00:08:06;;;;;;;78.43;27.93;;;6.00;94.00;;;;;;803946;175;26542;-78
2024/02/02 00:10:32;;;;;;;107.53;37.80;;;5.90;94.00;;;;;;804195;173;26955;-77
2024/02/02 00:12:59;;;;;;;72.33;22.20;;;5.90;94.50;;;;;;807051;175;26415;-78
2024/02/02 00:15:26;;;;;;;51.47;18.10;;;5.90;94.00;;;;;;819958;175;26413;-79
2024/02/02 00:17:52;;;;;;;63.33;19.80;;;5.90;94.10;;;;;;816711;173;26423;-79
2024/02/02 00:20:20;;;;;;;51.90;16.77;;;5.90;94.20;;;;;;819901;174;26398;-79
2024/02/02 00:22:46;;;;;;;69.53;22.13;;;5.90;94.10;;;;;;809170;175;26425;-79
2024/02/02 00:25:13;;;;;;;72.73;22.37;;;5.90;94.20;;;;;;820253;173;26394;-79
2024/02/02 00:27:39;;;;;;;189.97;57.97;;;5.90;94.30;;;;;;822886;174;26434;-78
2024/02/02 00:30:06;;;;;;;236.60;75.63;;;6.00;94.30;;;;;;812736;173;26431;-78
2024/02/02 00:32:33;;;;;;;147.47;50.97;;;5.90;94.20;;;;;;814973;173;26391;-79
2024/02/02 00:35:00;;;;;;;76.73;26.03;;;5.90;94.20;;;;;;830916;172;26437;-77
2024/02/02 00:37:26;;;;;;;105.93;36.87;;;5.90;94.80;;;;;;830618;173;27181;-78
2024/02/02 00:39:53;;;;;;;36.13;14.23;;;5.90;94.80;;;;;;818996;173;26430;-78
2024/02/02 00:42:19;;;;;;;42.53;13.43;;;5.90;95.20;;;;;;817117;172;26408;-78
2024/02/02 00:44:46;;;;;;;38.27;12.90;;;5.90;94.50;;;;;;814325;174;26976;-78
2024/02/02 00:47:13;;;;;;;42.50;11.23;;;5.90;94.60;;;;;;819658;175;26438;-78
2024/02/02 00:49:40;;;;;;;44.27;13.10;;;5.90;94.20;;;;;;814727;173;26434;-78
2024/02/02 00:52:06;;;;;;;57.03;18.07;;;5.90;94.10;;;;;;813415;175;26410;-76
2024/02/02 00:54:32;;;;;;;42.00;12.63;;;5.80;94.20;;;;;;822162;173;26394;-78
2024/02/02 00:56:59;;;;;;;32.17;9.20;;;5.80;94.30;;;;;;823529;173;26424;-78
2024/02/02 00:59:26;;;;;;;38.17;10.60;;;5.70;94.30;;;;;;809424;173;26410;-78
2024/02/02 01:01:52;;;;;;;68.43;21.10;;;5.70;94.40;;;;;;822359;173;26447;-78
2024/02/02 01:04:19;;;;;;;37.63;12.13;;;5.70;94.30;;;;;;812057;175;26442;-78
2024/02/02 01:06:45;;;;;;;36.03;11.30;;;5.70;94.20;;;;;;801678;179;26436;-77
2024/02/02 01:09:12;;;;;;;38.73;12.27;;;5.70;94.30;;;;;;803145;173;27034;-78
2024/02/02 01:11:39;;;;;;;35.23;11.33;;;5.80;94.20;;;;;;806746;174;26428;-78
2024/02/02 01:14:05;;;;;;;48.87;16.03;;;5.90;94.30;;;;;;808473;173;27010;-76
2024/02/02 01:16:32;;;;;;;40.23;10.90;;;5.90;94.00;;;;;;829406;173;26396;-78
2024/02/02 01:18:59;;;;;;;31.03;9.80;;;6.00;94.10;;;;;;829555;173;26409;-78
2024/02/02 01:21:25;;;;;;;29.03;8.77;;;6.00;94.00;;;;;;812890;173;26411;-80
2024/02/02 01:23:52;;;;;;;36.53;9.27;;;6.10;93.80;;;;;;812241;173;26379;-80
2024/02/02 01:26:18;;;;;;;31.93;10.97;;;6.10;94.90;;;;;;804513;173;26421;-77
2024/02/02 01:28:45;;;;;;;44.10;12.17;;;6.20;94.20;;;;;;804653;173;26460;-78
2024/02/02 01:31:12;;;;;;;43.77;15.03;;;6.10;93.80;;;;;;810834;175;26407;-78
2024/02/02 01:33:38;;;;;;;41.73;10.90;;;6.10;93.80;;;;;;812797;176;26960;-79
2024/02/02 01:36:05;;;;;;;54.33;14.77;;;6.10;93.70;;;;;;786214;180;26474;-79
2024/02/02 01:38:32;;;;;;;43.00;13.80;;;6.00;93.80;;;;;;805940;177;27054;-79
2024/02/02 01:40:58;;;;;;;78.57;27.73;;;6.00;93.80;;;;;;818596;172;26401;-79
2024/02/02 01:43:26;;;;;;;52.37;16.37;;;6.00;93.60;;;;;;825003;172;26392;-79
2024/02/02 01:45:51;;;;;;;38.07;10.43;;;6.00;94.00;;;;;;804122;178;26403;-76
2024/02/02 01:48:18;;;;;;;34.13;9.60;;;6.00;93.80;;;;;;809364;175;26427;-79
2024/02/02 01:50:45;;;;;;;35.80;7.57;;;6.00;93.80;;;;;;811952;173;26573;-78
2024/02/02 01:53:11;;;;;;;38.30;11.23;;;6.00;93.70;;;;;;813692;175;26542;-79
2024/02/02 01:55:38;;;;;;;73.33;22.27;;;6.00;93.90;;;;;;820443;175;26405;-79
2024/02/02 01:58:04;;;;;;;62.40;18.27;;;5.90;93.90;;;;;;819822;175;26968;-78
2024/02/02 02:00:31;;;;;;;28.30;9.53;;;5.90;93.90;;;;;;814687;173;26563;-79
2024/02/02 02:02:58;;;;;;;27.37;7.93;;;5.90;93.90;;;;;;818651;173;27026;-80
2024/02/02 02:05:24;;;;;;;37.67;9.00;;;5.90;94.00;;;;;;820406;173;26429;-80
2024/02/02 02:07:51;;;;;;;24.73;7.80;;;5.80;93.90;;;;;;810088;175;26978;-78
2024/02/02 02:10:17;;;;;;;30.90;8.17;;;5.80;94.10;;;;;;809887;173;26388;-78
2024/02/02 02:12:44;;;;;;;31.70;7.70;;;5.80;94.10;;;;;;808972;175;26421;-79
2024/02/02 02:15:11;;;;;;;31.87;8.13;;;5.80;94.20;;;;;;803096;175;26396;-79
2024/02/02 02:17:38;;;;;;;30.97;7.40;;;5.80;94.30;;;;;;802388;173;26435;-78
2024/02/02 02:20:04;;;;;;;23.37;7.40;;;5.80;94.30;;;;;;816312;173;26392;-78
2024/02/02 02:22:31;;;;;;;31.53;7.53;;;5.80;94.30;;;;;;811292;173;26411;-79
2024/02/02 02:24:57;;;;;;;34.80;8.70;;;5.80;94.60;;;;;;809710;175;26399;-78
2024/02/02 02:27:24;;;;;;;29.57;8.23;;;5.80;94.80;;;;;;803050;179;26985;-78
2024/02/02 02:29:50;;;;;;;32.70;8.17;;;5.80;94.60;;;;;;803697;173;26419;-79
2024/02/02 02:32:17;;;;;;;54.73;18.27;;;5.80;94.60;;;;;;818845;173;26969;-79
2024/02/02 02:34:44;;;;;;;37.80;10.87;;;6.00;94.60;;;;;;812127;173;26403;-79
2024/02/02 02:37:10;;;;;;;44.40;14.07;;;6.00;94.20;;;;;;818675;175;28072;-80
2024/02/02 02:39:37;;;;;;;32.67;11.07;;;6.10;94.20;;;;;;808759;173;26431;-79
2024/02/02 02:42:03;;;;;;;36.27;7.83;;;6.10;93.90;;;;;;804443;175;27032;-79
2024/02/02 02:44:30;;;;;;;27.43;7.60;;;6.20;93.90;;;;;;813929;175;26438;-80
2024/02/02 02:46:57;;;;;;;29.53;7.50;;;6.20;94.00;;;;;;820242;174;26584;-79
2024/02/02 02:49:23;;;;;;;36.67;8.60;;;6.20;94.20;;;;;;809817;174;26418;-79
2024/02/02 02:51:50;;;;;;;37.10;7.57;;;6.30;93.90;;;;;;811907;173;26947;-78
2024/02/02 02:54:16;;;;;;;27.13;8.40;;;6.30;93.90;;;;;;811335;173;26423;-79
2024/02/02 02:56:43;;;;;;;37.10;7.40;;;6.30;93.80;;;;;;792124;175;26398;-79
2024/02/02 02:59:10;;;;;;;26.40;8.00;;;6.30;93.70;;;;;;816849;173;26435;-80
2024/02/02 03:01:36;;;;;;;32.37;7.70;;;6.40;93.80;;;;;;821649;175;26443;-80
2024/02/02 03:04:03;;;;;;;33.23;8.30;;;6.40;94.00;;;;;;812116;173;26936;-79
2024/02/02 03:06:30;;;;;;;30.47;7.10;;;6.40;93.70;;;;;;809072;175;26394;-80
2024/02/02 03:08:56;;;;;;;33.90;8.37;;;6.40;93.70;;;;;;808468;173;26411;-80
2024/02/02 03:11:23;;;;;;;35.30;8.73;;;6.40;93.80;;;;;;823246;173;26432;-79
2024/02/02 03:13:49;;;;;;;28.87;7.63;;;6.40;93.90;;;;;;813603;173;26942;-76
2024/02/02 03:16:16;;;;;;;36.60;8.47;;;6.40;94.10;;;;;;813162;175;26403;-79
2024/02/02 03:18:43;;;;;;;32.73;7.90;;;6.40;93.90;;;;;;819433;173;26441;-79
2024/02/02 03:21:09;;;;;;;30.70;8.50;;;6.40;94.00;;;;;;808039;174;26552;-78
2024/02/02 03:23:36;;;;;;;31.40;7.73;;;6.30;94.00;;;;;;815983;174;26412;-79
2024/02/02 03:26:02;;;;;;;35.70;9.57;;;6.40;93.90;;;;;;806525;174;26420;-79
2024/02/02 03:28:29;;;;;;;40.03;9.60;;;6.40;94.00;;;;;;812616;173;26462;-80
2024/02/02 03:30:56;;;;;;;67.77;20.33;;;6.40;93.80;;;;;;805559;174;27006;-79
2024/02/02 03:33:22;;;;;;;35.60;9.03;;;6.50;93.80;;;;;;807377;176;26396;-79
2024/02/02 03:35:49;;;;;;;29.97;8.50;;;6.50;93.70;;;;;;810128;175;26954;-78
2024/02/02 03:38:15;;;;;;;74.87;21.73;;;6.50;93.90;;;;;;806130;173;26448;-79
2024/02/02 03:40:42;;;;;;;34.53;8.97;;;6.50;93.70;;;;;;808432;175;26487;-78
2024/02/02 03:43:10;;;;;;;30.90;9.63;;;6.50;93.70;;;;;;803997;173;26415;-79
2024/02/02 03:45:35;;;;;;;35.20;8.73;;;6.40;93.70;;;;;;819948;174;26435;-77
2024/02/02 03:48:02;;;;;;;34.80;8.53;;;6.40;93.80;;;;;;822640;173;26428;-78
2024/02/02 03:50:28;;;;;;;35.33;8.20;;;6.50;93.60;;;;;;816209;173;26417;-78
2024/02/02 03:52:55;;;;;;;36.27;10.00;;;6.40;93.80;;;;;;820995;175;26411;-79
2024/02/02 03:55:22;;;;;;;30.03;8.43;;;6.50;94.30;;;;;;812634;175;26407;-79
2024/02/02 03:57:48;;;;;;;30.57;8.87;;;6.50;94.20;;;;;;808209;175;26438;-79
2024/02/02 04:00:15;;;;;;;28.43;8.93;;;6.50;94.20;;;;;;805366;176;26729;-79
2024/02/02 04:02:42;;;;;;;27.20;8.37;;;6.50;93.90;;;;;;807330;173;26401;-79
2024/02/02 04:05:09;;;;;;;41.13;9.47;;;6.50;93.90;;;;;;814902;174;26397;-78
2024/02/02 04:07:35;;;;;;;41.10;8.53;;;6.50;93.90;;;;;;818321;174;27017;-79
2024/02/02 04:10:03;;;;;;;22.63;7.90;;;6.50;94.00;;;;;;812779;172;26409;-79
2024/02/02 04:12:28;;;;;;;38.37;8.93;;;6.40;94.20;;;;;;816808;173;26469;-78
2024/02/02 04:14:55;;;;;;;27.80;8.53;;;6.50;94.20;;;;;;814168;174;26402;-78
2024/02/02 04:17:22;;;;;;;39.67;8.40;;;6.50;94.20;;;;;;801925;172;26478;-77
2024/02/02 04:19:48;;;;;;;31.30;7.80;;;6.50;94.40;;;;;;775291;183;27049;-77
2024/02/02 04:22:16;;;;;;;39.13;9.07;;;6.60;94.70;;;;;;776849;184;26496;-77
2024/02/02 04:24:41;;;;;;;28.43;7.87;;;6.60;94.40;;;;;;774963;184;26467;-77
2024/02/02 04:27:08;;;;;;;36.00;8.33;;;6.60;94.00;;;;;;773773;184;26467;-77
2024/02/02 04:29:35;;;;;;;41.53;8.23;;;6.50;93.80;;;;;;769559;184;26487;-78
2024/02/02 04:32:01;;;;;;;33.70;8.00;;;6.60;94.30;;;;;;770862;184;26478;-78
2024/02/02 04:34:28;;;;;;;42.10;9.90;;;6.60;93.80;;;;;;774176;184;26482;-77
2024/02/02 04:36:54;;;;;;;34.80;9.30;;;6.60;93.70;;;;;;769028;183;26729;-76
2024/02/02 04:39:21;;;;;;;26.17;8.27;;;6.70;93.90;;;;;;765828;184;26580;-77
2024/02/02 04:41:48;;;;;;;40.77;9.07;;;6.60;93.60;;;;;;770478;183;26564;-76
2024/02/02 04:44:14;;;;;;;43.17;10.83;;;6.60;93.50;;;;;;768583;183;26559;-75
2024/02/02 04:46:41;;;;;;;36.57;8.60;;;6.60;93.60;;;;;;768663;184;26589;-76
2024/02/02 04:49:07;;;;;;;30.93;8.23;;;6.60;93.60;;;;;;773438;184;26591;-76
2024/02/02 04:51:35;;;;;;;30.30;8.77;;;6.70;93.60;;;;;;773086;183;27277;-77
2024/02/02 04:54:01;;;;;;;33.47;8.53;;;6.60;93.60;;;;;;763924;184;26478;-77
2024/02/02 04:56:27;;;;;;;32.60;8.23;;;6.70;93.50;;;;;;770901;184;26560;-76
2024/02/02 04:58:54;;;;;;;36.53;8.90;;;6.60;93.70;;;;;;768377;183;27097;-76
2024/02/02 05:01:20;;;;;;;32.93;8.63;;;6.60;93.70;;;;;;776302;181;26474;-75
2024/02/02 05:03:47;;;;;;;36.30;9.17;;;6.60;93.80;;;;;;772158;184;27059;-76
2024/02/02 05:06:16;;;;;;;32.20;8.97;;;6.60;93.60;;;;;;762819;185;26550;-75
2024/02/02 05:08:40;;;;;;;34.80;8.20;;;6.60;93.60;;;;;;768918;184;27074;-76
2024/02/02 05:11:07;;;;;;;33.23;9.07;;;6.60;93.50;;;;;;767415;184;26533;-76
2024/02/02 05:13:33;;;;;;;35.40;9.17;;;6.60;93.50;;;;;;768539;183;27366;-75
2024/02/02 05:16:00;;;;;;;34.70;8.80;;;6.60;93.50;;;;;;774913;184;26478;-75
2024/02/02 05:18:26;;;;;;;40.60;7.83;;;6.70;93.60;;;;;;775004;184;26483;-80
2024/02/02 05:20:53;;;;;;;40.40;9.30;;;6.60;93.40;;;;;;777511;184;26488;-80
2024/02/02 05:23:20;;;;;;;27.43;7.80;;;6.60;93.30;;;;;;762902;182;26487;-80
2024/02/02 05:25:46;;;;;;;38.63;9.90;;;6.60;93.30;;;;;;770537;182;27057;-78
2024/02/02 05:28:13;;;;;;;35.43;8.47;;;6.70;93.10;;;;;;761120;184;26584;-78
2024/02/02 05:30:40;;;;;;;34.50;7.90;;;6.70;92.80;;;;;;771389;183;27054;-77
2024/02/02 05:33:06;;;;;;;37.77;9.00;;;6.70;92.90;;;;;;769910;184;26479;-74
2024/02/02 05:35:33;;;;;;;39.70;9.03;;;6.80;93.60;;;;;;769132;183;27878;-73
2024/02/02 05:38:00;;;;;;;39.30;10.47;;;6.90;93.00;;;;;;771151;184;26496;-75
2024/02/02 05:40:26;;;;;;;31.70;8.47;;;6.80;92.80;;;;;;768075;184;27040;-78
2024/02/02 05:42:52;;;;;;;26.80;7.50;;;6.70;92.70;;;;;;769093;183;26482;-76
2024/02/02 05:45:19;;;;;;;32.37;9.00;;;6.70;92.70;;;;;;763920;186;26593;-76
2024/02/02 05:47:46;;;;;;;35.73;8.67;;;6.70;92.70;;;;;;777077;183;27044;-77
2024/02/02 05:50:12;;;;;;;33.37;8.93;;;6.70;92.70;;;;;;770845;183;26653;-77
2024/02/02 05:52:39;;;;;;;32.13;8.83;;;6.70;92.90;;;;;;767539;183;26539;-77
2024/02/02 05:55:06;;;;;;;30.50;8.57;;;6.70;92.70;;;;;;768076;183;26517;-78
2024/02/02 05:57:32;;;;;;;42.07;9.50;;;6.70;92.90;;;;;;769730;183;26554;-75
2024/02/02 05:59:59;;;;;;;37.77;8.50;;;6.70;93.10;;;;;;764962;182;27200;-76
2024/02/02 06:02:26;;;;;;;37.17;8.90;;;6.70;93.20;;;;;;772013;182;26560;-75
2024/02/02 06:04:52;;;;;;;47.40;11.53;;;6.80;92.90;;;;;;767943;182;27114;-77
2024/02/02 06:07:19;;;;;;;41.43;10.20;;;6.70;93.20;;;;;;767495;183;26511;-77
2024/02/02 06:09:45;;;;;;;52.40;13.20;;;6.80;93.20;;;;;;768130;184;26540;-78
2024/02/02 06:12:12;;;;;;;47.97;11.60;;;6.80;93.20;;;;;;767794;184;27065;-78
2024/02/02 06:14:39;;;;;;;40.87;10.10;;;6.80;93.30;;;;;;765718;183;26556;-76
2024/02/02 06:17:09;;;;;;;35.27;10.80;;;6.90;94.00;;;;;;763160;183;26502;-78
2024/02/02 06:19:32;;;;;;;29.87;10.13;;;6.80;93.20;;;;;;773693;185;26470;-76
2024/02/02 06:21:59;;;;;;;39.37;10.47;;;6.80;93.60;;;;;;768501;185;26472;-78
2024/02/02 06:24:26;;;;;;;34.90;10.10;;;6.70;94.20;;;;;;761160;184;26471;-76
2024/02/02 06:26:53;;;;;;;31.57;9.33;;;6.60;94.50;;;;;;787367;182;26500;-76
2024/02/02 06:29:20;;;;;;;39.40;9.23;;;6.50;94.80;;;;;;777073;184;27061;-77
2024/02/02 06:31:46;;;;;;;29.47;9.27;;;6.40;94.80;;;;;;766724;185;26715;-76
2024/02/02 06:34:13;;;;;;;33.10;10.30;;;6.40;95.00;;;;;;763849;185;26530;-77
2024/02/02 06:36:40;;;;;;;32.80;9.80;;;6.30;95.40;;;;;;774888;185;26463;-76
2024/02/02 06:39:06;;;;;;;34.40;8.57;;;6.30;95.30;;;;;;763724;184;26491;-77
2024/02/02 06:41:33;;;;;;;32.30;8.90;;;6.20;95.30;;;;;;775591;184;27042;-74
2024/02/02 06:44:00;;;;;;;32.33;9.17;;;6.10;95.30;;;;;;769270;185;26517;-75
2024/02/02 06:46:26;;;;;;;26.20;8.90;;;6.10;95.30;;;;;;770353;185;26484;-76
2024/02/02 06:48:53;;;;;;;36.90;8.87;;;6.10;95.60;;;;;;767733;184;27331;-77
2024/02/02 06:51:19;;;;;;;29.33;9.23;;;6.10;95.90;;;;;;761839;184;26523;-77
2024/02/02 06:53:46;;;;;;;31.17;9.07;;;6.10;95.80;;;;;;761453;187;27107;-76
2024/02/02 06:56:24;;;;;;;31.83;9.37;;;6.00;95.80;;;;;;762353;184;26511;-77
2024/02/02 06:58:51;;;;;;;32.13;10.10;;;6.00;96.20;;;;;;770664;184;27068;-75
2024/02/02 07:01:17;;;;;;;33.53;9.40;;;6.00;95.90;;;;;;766032;184;26507;-77
2024/02/02 07:03:44;;;;;;;33.03;8.73;;;6.00;96.10;;;;;;770271;184;26498;-78
2024/02/02 07:06:10;;;;;;;27.90;9.03;;;5.90;95.80;;;;;;775640;183;26516;-77
2024/02/02 07:08:37;;;;;;;29.57;8.53;;;5.90;95.60;;;;;;772196;184;26486;-76
2024/02/02 07:11:26;;;;;;;38.80;9.70;;;6.00;95.60;;;;;;762094;184;27018;-76
2024/02/02 07:13:53;;;;;;;39.50;10.10;;;6.00;95.40;;;;;;761272;184;26487;-77
2024/02/02 07:16:29;;;;;;;36.23;9.77;;;6.10;95.10;;;;;;770178;183;27160;-76
2024/02/02 07:18:55;;;;;;;33.90;10.00;;;6.20;94.70;;;;;;761272;188;26490;-77
2024/02/02 07:21:25;;;;;;;41.73;9.97;;;6.20;94.70;;;;;;768231;184;26531;-76
2024/02/02 07:23:52;;;;;;;38.10;10.63;;;6.20;94.40;;;;;;765217;184;26494;-78
2024/02/02 07:26:19;;;;;;;40.23;11.40;;;6.30;93.90;;;;;;765463;184;26475;-75
2024/02/02 07:28:45;;;;;;;37.83;10.23;;;6.50;93.80;;;;;;770693;184;26503;-76
2024/02/02 07:31:12;;;;;;;30.17;9.77;;;6.40;93.20;;;;;;767128;184;26505;-77
2024/02/02 07:33:41;;;;;;;33.90;9.97;;;6.50;93.10;;;;;;772437;185;26527;-77
2024/02/02 07:36:11;;;;;;;39.27;10.90;;;6.40;93.00;;;;;;771386;183;26508;-77
2024/02/02 07:38:45;;;;;;;33.10;10.90;;;6.40;93.00;;;;;;774678;183;26468;-80
2024/02/02 07:41:12;;;;;;;35.13;10.37;;;6.40;92.80;;;;;;780248;184;26503;-80
2024/02/02 07:43:37;;;;;;;41.83;11.27;;;6.50;92.70;;;;;;772089;180;26482;-77
2024/02/02 07:46:04;;;;;;;37.20;10.37;;;6.40;92.70;;;;;;778133;182;26655;-77
2024/02/02 07:48:31;;;;;;;36.77;10.97;;;6.40;92.60;;;;;;782538;181;26471;-78
2024/02/02 07:50:58;;;;;;;46.57;11.57;;;6.50;92.60;;;;;;783368;183;26490;-77
2024/02/02 07:53:24;;;;;;;32.53;10.30;;;6.50;92.40;;;;;;787376;181;26457;-78
2024/02/02 07:55:51;;;;;;;37.13;10.63;;;6.60;92.10;;;;;;786157;180;28072;-78
2024/02/02 07:58:18;;;;;;;35.97;10.17;;;6.60;92.00;;;;;;792549;180;26472;-76
2024/02/02 08:00:44;;;;;;;29.70;9.03;;;6.50;91.90;;;;;;792161;178;26470;-76
2024/02/02 08:03:11;;;;;;;37.40;9.53;;;6.60;91.80;;;;;;797675;172;26598;-76
2024/02/02 08:05:38;;;;;;;35.87;10.13;;;6.60;91.70;;;;;;779903;184;26478;-76
2024/02/02 08:08:06;;;;;;;36.30;11.37;;;6.60;91.40;;;;;;783761;180;26981;-77
2024/02/02 08:10:33;;;;;;;30.27;10.07;;;6.70;91.40;;;;;;776303;185;26448;-77
2024/02/02 08:13:00;;;;;;;34.87;10.17;;;6.70;91.30;;;;;;763219;186;26482;-76
2024/02/02 08:15:26;;;;;;;38.73;9.83;;;6.70;91.40;;;;;;783077;184;26484;-77
2024/02/02 08:17:53;;;;;;;36.10;10.83;;;6.80;91.30;;;;;;779932;184;26490;-77
2024/02/02 08:20:20;;;;;;;31.33;9.30;;;6.90;90.80;;;;;;778879;185;27000;-76
2024/02/02 08:22:46;;;;;;;29.63;9.50;;;6.90;90.80;;;;;;783028;183;26463;-75
2024/02/02 08:25:13;;;;;;;30.83;8.93;;;6.90;90.30;;;;;;783049;184;26522;-77
2024/02/02 08:27:39;;;;;;;34.30;10.07;;;7.00;90.20;;;;;;776751;183;26479;-76
2024/02/02 08:30:07;;;;;;;55.53;12.23;;;7.10;91.00;;;;;;771699;183;26467;-78
2024/02/02 08:32:33;;;;;;;32.03;9.13;;;7.20;90.40;;;;;;773345;183;26478;-77
2024/02/02 08:35:00;;;;;;;29.40;9.03;;;7.30;89.40;;;;;;771539;184;26627;-77
2024/02/02 08:37:26;;;;;;;28.70;8.50;;;7.40;90.00;;;;;;770154;184;27022;-77
2024/02/02 08:39:54;;;;;;;37.27;9.37;;;7.40;88.50;;;;;;765961;184;26483;-75
2024/02/02 08:42:21;;;;;;;22.73;7.97;;;7.50;87.30;;;;;;771773;183;26474;-77
2024/02/02 08:44:47;;;;;;;36.17;9.27;;;7.50;86.70;;;;;;762269;186;26480;-77
2024/02/02 08:47:14;;;;;;;31.47;9.47;;;7.50;86.50;;;;;;769729;184;26536;-77
2024/02/02 08:49:53;;;;;;;30.60;9.97;;;7.60;87.10;;;;;;769449;184;26479;-77
2024/02/02 08:52:15;;;;;;;32.60;8.70;;;7.60;85.80;;;;;;769019;184;26474;-78
2024/02/02 08:54:45;;;;;;;26.70;9.47;;;7.60;85.60;;;;;;770808;183;26471;-77
2024/02/02 08:57:23;;;;;;;20.17;6.93;;;7.60;84.60;;;;;;778186;183;26460;-76
2024/02/02 08:59:52;;;;;;;29.23;8.27;;;7.70;82.90;;;;;;770201;183;26484;-76
2024/02/02 09:02:24;;;;;;;26.23;6.67;;;7.70;84.00;;;;;;769768;185;26466;-76
2024/02/02 09:05:00;;;;;;;25.80;7.40;;;7.80;82.50;;;;;;771070;184;26469;-76
2024/02/02 09:07:27;;;;;;;23.93;7.67;;;7.80;82.80;;;;;;777140;184;26651;-77
2024/02/02 09:09:53;;;;;;;20.83;7.60;;;7.90;84.00;;;;;;775230;183;27038;-75
2024/02/02 09:12:20;;;;;;;21.83;7.20;;;7.90;81.60;;;;;;763211;184;26497;-76
2024/02/02 09:14:47;;;;;;;18.83;6.73;;;8.00;82.40;;;;;;752219;187;27081;-77
2024/02/02 09:17:13;;;;;;;25.10;7.70;;;8.10;80.70;;;;;;767073;183;26485;-78
2024/02/02 09:19:41;;;;;;;19.23;6.87;;;8.30;80.40;;;;;;774586;183;26509;-78
2024/02/02 09:22:11;;;;;;;21.87;5.60;;;8.40;80.20;;;;;;771805;183;26514;-77
2024/02/02 09:24:40;;;;;;;21.63;6.27;;;8.50;77.70;;;;;;766681;185;26482;-77
2024/02/02 09:27:06;;;;;;;21.37;5.13;;;8.60;77.40;;;;;;779349;184;26498;-77
2024/02/02 09:29:33;;;;;;;18.70;5.27;;;8.70;76.00;;;;;;772483;184;27020;-77
2024/02/02 09:31:59;;;;;;;19.50;4.77;;;8.80;77.30;;;;;;760076;189;26484;-76
2024/02/02 09:34:26;;;;;;;21.73;5.10;;;8.90;78.20;;;;;;762524;184;26466;-77
2024/02/02 09:36:53;;;;;;;17.53;4.37;;;9.10;76.00;;;;;;773886;184;26466;-76
2024/02/02 09:39:39;;;;;;;24.50;5.80;;;9.10;74.40;;;;;;768630;184;26479;-77
2024/02/02 09:42:18;;;;;;;17.13;4.77;;;9.20;74.00;;;;;;764752;185;26503;-77
2024/02/02 09:44:49;;;;;;;39.07;10.37;;;9.20;74.30;;;;;;773760;183;26476;-77
2024/02/02 09:47:22;;;;;;;23.57;7.83;;;9.30;75.00;;;;;;764424;187;26508;-77
2024/02/02 09:50:07;;;;;;;20.47;5.97;;;9.40;73.60;;;;;;767345;187;26495;-78
2024/02/02 09:52:59;;;;;;;25.73;7.53;;;9.50;72.70;;;;;;757145;186;26513;-76
2024/02/02 09:55:27;;;;;;;19.27;6.83;;;9.50;73.10;;;;;;761589;184;26481;-76
2024/02/02 09:57:57;;;;;;;23.37;6.67;;;9.60;73.50;;;;;;762979;183;26485;-78
2024/02/02 10:00:43;;;;;;;22.10;8.00;;;9.70;73.90;;;;;;772745;185;26614;-77
2024/02/02 10:03:36;;;;;;;18.43;4.40;;;9.70;72.20;;;;;;776722;183;26469;-77
2024/02/02 10:06:24;;;;;;;27.00;7.90;;;9.80;72.50;;;;;;766143;186;26513;-75
2024/02/02 10:08:58;;;;;;;32.93;10.60;;;9.60;74.50;;;;;;776115;183;26505;-78
2024/02/02 10:11:45;;;;;;;19.87;6.07;;;9.60;73.90;;;;;;780451;183;26473;-77
2024/02/02 10:14:13;;;;;;;22.13;4.70;;;9.40;73.20;;;;;;773764;181;26477;-77
2024/02/02 10:16:47;;;;;;;19.00;5.00;;;9.60;74.70;;;;;;755577;189;26499;-76
2024/02/02 10:19:25;;;;;;;21.30;4.83;;;9.60;73.40;;;;;;770847;176;27040;-78
2024/02/02 10:22:03;;;;;;;34.37;12.23;;;9.60;73.40;;;;;;772552;186;26543;-79
2024/02/02 10:24:53;;;;;;;30.40;9.03;;;9.70;73.90;;;;;;766686;186;26514;-80
2024/02/02 10:27:24;;;;;;;31.77;11.43;;;9.80;73.30;;;;;;772708;181;27089;-75
2024/02/02 10:29:57;;;;;;;25.23;8.33;;;9.80;73.60;;;;;;774805;184;26487;-79
2024/02/02 10:32:34;;;;;;;19.00;5.10;;;9.90;74.70;;;;;;776588;184;26472;-78
2024/02/02 10:35:21;;;;;;;17.67;5.77;;;10.00;73.50;;;;;;772748;184;26476;-79
2024/02/02 10:37:48;;;;;;;22.13;6.00;;;10.20;72.40;;;;;;767765;178;26473;-79
2024/02/02 10:40:23;;;;;;;17.90;4.20;;;10.10;71.00;;;;;;777737;184;26548;-76
2024/02/02 10:43:03;;;;;;;14.13;4.37;;;10.10;72.10;;;;;;771985;185;26521;-75
2024/02/02 10:45:34;;;;;;;17.60;5.70;;;10.30;70.60;;;;;;774251;185;26499;-79
2024/02/02 10:48:08;;;;;;;28.53;9.93;;;10.40;71.20;;;;;;775545;185;26495;-79
2024/02/02 10:50:38;;;;;;;22.87;5.70;;;10.70;71.00;;;;;;772239;185;26488;-79
2024/02/02 10:53:23;;;;;;;21.23;6.50;;;10.70;70.00;;;;;;767805;185;26484;-78
2024/02/02 10:56:11;;;;;;;19.00;4.90;;;11.00;71.70;;;;;;760731;184;26478;-76
2024/02/02 10:58:54;;;;;;;18.13;5.20;;;11.40;67.50;;;;;;771237;183;26496;-78
2024/02/02 11:01:22;;;;;;;14.70;4.70;;;11.70;68.10;;;;;;782313;183;26494;-79
2024/02/02 11:03:51;;;;;;;29.30;8.67;;;11.70;67.70;;;;;;774090;182;26488;-80
2024/02/02 11:06:22;;;;;;;53.63;22.10;;;12.20;67.40;;;;;;763460;181;26458;-79
2024/02/02 11:08:50;;;;;;;45.73;16.83;;;12.60;65.00;;;;;;776408;180;26486;-79
2024/02/02 11:11:17;;;;;;;31.67;7.50;;;12.40;63.20;;;;;;774914;184;26474;-78
2024/02/02 11:13:49;;;;;;;24.30;7.60;;;12.20;67.50;;;;;;774076;184;26488;-78
2024/02/02 11:16:38;;;;;;;29.93;8.97;;;12.10;66.50;;;;;;774222;181;26503;-78
2024/02/02 11:19:13;;;;;;;26.73;8.97;;;12.20;66.50;;;;;;779293;183;26496;-79
2024/02/02 11:21:58;;;;;;;14.77;5.70;;;13.00;64.70;;;;;;777075;185;28184;-80
2024/02/02 11:24:24;;;;;;;33.10;14.13;;;13.20;62.40;;;;;;773166;184;26484;-78
2024/02/02 11:26:53;;;;;;;44.87;17.13;;;13.80;62.50;;;;;;772952;183;26525;-78
2024/02/02 11:29:34;;;;;;;40.60;17.40;;;14.10;59.70;;;;;;772451;181;26488;-80
2024/02/02 11:32:07;;;;;;;89.03;27.83;;;13.20;62.70;;;;;;763006;182;26487;-79
2024/02/02 11:34:50;;;;;;;51.47;16.13;;;13.30;63.40;;;;;;771874;182;26470;-79
2024/02/02 11:37:20;;;;;;;64.03;22.53;;;13.60;63.60;;;;;;771745;184;27033;-79
2024/02/02 11:39:53;;;;;;;107.40;38.63;;;13.40;62.80;;;;;;773665;185;26488;-79
2024/02/02 11:42:16;;;;;;;56.23;22.73;;;14.00;62.30;;;;;;771706;184;26468;-78
2024/02/02 11:44:42;;;;;;;35.30;11.43;;;14.50;61.60;;;;;;772068;185;26474;-79
2024/02/02 11:47:09;;;;;;;33.60;14.47;;;14.40;61.50;;;;;;772857;185;26512;-80
2024/02/02 11:49:35;;;;;;;27.30;9.37;;;13.70;61.90;;;;;;777315;183;26499;-80
2024/02/02 11:52:05;;;;;;;17.73;5.83;;;13.90;61.30;;;;;;772707;184;26481;-79
2024/02/02 11:54:42;;;;;;;55.30;22.20;;;14.00;61.70;;;;;;777003;184;26925;-80
2024/02/02 11:57:09;;;;;;;63.47;26.80;;;14.90;60.00;;;;;;772654;185;26482;-78
2024/02/02 11:59:38;;;;;;;61.57;24.13;;;14.90;60.00;;;;;;771101;183;27063;-79
2024/02/02 12:02:21;;;;;;;39.03;16.27;;;15.10;58.10;;;;;;775462;185;26491;-78
2024/02/02 12:04:48;;;;;;;21.60;8.30;;;15.80;56.90;;;;;;758508;185;26485;-78
2024/02/02 12:07:48;;;;;;;22.30;9.13;;;16.00;57.00;;;;;;769714;185;27031;-79
2024/02/02 12:10:16;;;;;;;18.27;5.63;;;17.50;54.70;;;;;;774934;183;26488;-79
2024/02/02 12:12:43;;;;;;;21.13;6.90;;;18.90;48.40;;;;;;773099;182;26637;-79
2024/02/02 12:15:10;;;;;;;21.77;8.83;;;18.80;48.90;;;;;;771919;185;26493;-81
2024/02/02 12:17:36;;;;;;;21.00;8.27;;;18.90;46.80;;;;;;773582;185;26540;-78
2024/02/02 12:20:07;;;;;;;19.90;6.10;;;18.60;47.60;;;;;;775562;185;26492;-79
2024/02/02 12:22:31;;;;;;;21.40;7.53;;;17.30;50.60;;;;;;769992;185;26527;-79
2024/02/02 12:24:57;;;;;;;46.10;18.93;;;16.50;54.40;;;;;;768707;184;26487;-78
2024/02/02 12:27:23;;;;;;;52.77;21.97;;;16.30;54.20;;;;;;775785;183;26505;-80
2024/02/02 12:29:51;;;;;;;49.53;22.67;;;16.30;54.50;;;;;;763039;185;26489;-80
2024/02/02 12:32:17;;;;;;;47.93;19.00;;;16.50;54.70;;;;;;769427;185;26481;-79
2024/02/02 12:34:44;;;;;;;44.03;18.50;;;16.70;54.80;;;;;;771018;185;26468;-79
2024/02/02 12:37:12;;;;;;;31.90;13.13;;;16.70;55.30;;;;;;772947;185;26512;-75
2024/02/02 12:39:37;;;;;;;22.40;6.60;;;16.80;55.70;;;;;;773912;183;26493;-80
2024/02/02 12:42:05;;;;;;;17.33;5.97;;;16.10;54.60;;;;;;775372;183;26469;-82
2024/02/02 12:44:32;;;;;;;19.33;6.43;;;14.90;57.50;;;;;;768481;184;26519;-80
2024/02/02 12:46:58;;;;;;;19.00;6.17;;;14.30;62.30;;;;;;771834;185;26473;-78